Aérodrome :
LOGIN :

S'inscrire | Disclaimer

   EN    FR    IT 

 










Légende :    VFR   VFR Marginal   IFR   IFR Intensif   IFR Très Intensif
Visi : 
Plafond : 
>= 8 km
>= 3000ft
5 à 8 km
1000 à 3000 ft
1500m à 5 km
500 à 1000 ft
800 à 1500m
200 à 500 ft
< 800m
< 200 ft
Symboles :   Orages  Brouillard  Fortes neiges  Fortes précipitations  Vent > 20 kt
SIGMETs :   Divers  Orages  Givrage  Turbulence  Onde Orograph.  Cendres Volcan.







- Altitude de l'aérodrome : 135 ft
- Code IATA : BOJ


LBBG - Burgas

DERNIER METAR :
  • 230500Z 22003KT 170V250 CAVOK 22/18 Q1014 NOSIG

METARs EXPIRÉS :
  • 230430Z 21005KT CAVOK 20/17 Q1014 NOSIG
  • 230400Z 21004KT CAVOK 20/16 Q1014 NOSIG
  • 230330Z 16005KT CAVOK 19/15 Q1014 NOSIG
  • 230300Z VRB02KT CAVOK 19/15 Q1015 NOSIG
  • 230230Z VRB02KT CAVOK 18/14 Q1014 NOSIG

TAF TAF LBBG
Valide du 23 à 00h jusqu'au 24 à 00h UTC


222300Z 2300/2324 30008KT CAVOK
BECMG 2307/2309 05012KT SCT045
TEMPO 2309/2319 VRB20KT 3000 +TSRA SCT030CB BKN040
BECMG 2319/2320 35012KT
TEMPO 2320/2323 5000 SHRA FEW030CB BKN045
Pas de NOTAMs connus pour ce terrain.



MET'MAP, la Météo Aéronautique d'un coup d'oeil ! - Copyright ORBIFLY Décembre 2007 - Disclaimer

ORBIFLY MET'MAP TEAM :

Programmation & Développement : Alexandra Zaïnal
Conception & Développement : Baudouin d'Aumeries
Co-Programmation & Développement : Marc-Olivier Méhu
Soutien technique & logistique : Manuel Goepfert

Contact : metmap@orbifly.com




SOURCES & CREDITS :

   NOAA